Time;durP1;ratioP1;P1;durP2;ratioP2;P2;SDS_P1;SDS_P2;PMS_P1;PMS_P2;Temp;Humidity;BMP_temperature;BMP_pressure;BME280_temperature;BME280_humidity;BME280_pressure;Samples;Min_cycle;Max_cycle;Signal;HPM_P1;HPM_P2
2023/12/05 00:01:51;;;;;;;1999.90;999.90;;;-1.40;99.90;;;;;;5067160;28;20032;-75
2023/12/05 00:04:16;;;;;;;1999.90;999.90;;;-1.50;99.90;;;;;;5067819;28;20037;-75
2023/12/05 00:06:42;;;;;;;1999.90;999.90;;;-1.60;99.90;;;;;;5067478;28;20564;-75
2023/12/05 00:09:08;;;;;;;1999.90;999.90;;;-1.50;99.90;;;;;;5071196;28;20029;-74
2023/12/05 00:11:34;;;;;;;1999.90;999.90;;;-1.40;99.90;;;;;;5068148;28;20138;-75
2023/12/05 00:13:59;;;;;;;1999.90;999.90;;;-1.30;99.90;;;;;;5069705;28;20037;-76
2023/12/05 00:16:25;;;;;;;1999.90;999.90;;;-1.10;99.90;;;;;;5068285;28;20122;-76
2023/12/05 00:18:51;;;;;;;1999.90;999.90;;;-1.10;99.90;;;;;;5068610;28;20029;-74
2023/12/05 00:21:17;;;;;;;1999.90;999.90;;;-1.10;99.90;;;;;;5053266;28;20144;-75
2023/12/05 00:23:42;;;;;;;1999.90;999.90;;;-1.10;99.90;;;;;;5067947;28;20446;-74
2023/12/05 00:26:08;;;;;;;1999.90;999.90;;;-1.10;99.90;;;;;;5071737;28;20110;-76
2023/12/05 00:28:34;;;;;;;1999.90;999.90;;;-1.00;99.90;;;;;;5071157;28;20543;-74
2023/12/05 00:31:00;;;;;;;1999.90;999.90;;;-1.00;99.90;;;;;;5069746;28;20067;-75
2023/12/05 00:33:25;;;;;;;1999.90;999.90;;;-1.10;99.90;;;;;;5071385;28;20111;-75
2023/12/05 00:35:51;;;;;;;1999.90;999.90;;;-1.20;99.90;;;;;;5069804;28;20032;-75
2023/12/05 00:38:17;;;;;;;1999.90;999.90;;;-1.20;99.90;;;;;;5069854;28;20025;-75
2023/12/05 00:40:42;;;;;;;1999.90;999.90;;;-1.20;99.90;;;;;;5072356;28;20028;-75
2023/12/05 00:43:08;;;;;;;1999.90;999.90;;;-1.20;99.90;;;;;;5070119;28;20043;-75
2023/12/05 00:45:34;;;;;;;1999.90;999.90;;;-1.10;99.90;;;;;;5067421;28;20056;-76
2023/12/05 00:47:59;;;;;;;1999.90;999.90;;;-1.00;99.90;;;;;;5067263;28;20036;-75
2023/12/05 00:50:25;;;;;;;1999.90;999.90;;;-1.00;99.90;;;;;;5069188;28;20028;-75
2023/12/05 00:52:50;;;;;;;1999.90;999.90;;;-1.00;99.90;;;;;;5068365;28;20090;-76
2023/12/05 00:55:16;;;;;;;1999.90;999.90;;;-1.00;99.90;;;;;;5072213;28;20032;-76
2023/12/05 00:57:42;;;;;;;1999.90;999.90;;;-0.90;99.90;;;;;;5069947;28;20036;-76
2023/12/05 01:00:10;;;;;;;1999.90;999.90;;;-0.90;99.90;;;;;;5071161;28;20035;-75
2023/12/05 01:02:36;;;;;;;1999.90;999.90;;;-0.80;99.90;;;;;;5052242;28;20486;-75
2023/12/05 01:05:02;;;;;;;1999.90;999.90;;;-0.80;99.90;;;;;;5069879;28;20062;-76
2023/12/05 01:07:28;;;;;;;1999.90;999.90;;;-0.90;99.90;;;;;;5069206;28;20036;-76
2023/12/05 01:09:54;;;;;;;1999.90;999.90;;;-0.90;99.90;;;;;;5066583;28;20025;-76
2023/12/05 01:12:19;;;;;;;1999.90;999.90;;;-1.00;99.90;;;;;;5065687;28;20508;-76
2023/12/05 01:14:45;;;;;;;1999.90;999.90;;;-0.90;99.90;;;;;;5070372;28;20549;-75
2023/12/05 01:17:13;;;;;;;1999.90;999.90;;;-0.90;99.90;;;;;;5071613;28;20497;-76
2023/12/05 01:19:39;;;;;;;1999.90;999.90;;;-0.90;99.90;;;;;;5074849;28;20383;-75
2023/12/05 01:22:05;;;;;;;1999.90;999.90;;;-0.90;99.90;;;;;;5071899;28;20039;-75
2023/12/05 01:24:31;;;;;;;1999.90;999.90;;;-0.90;99.90;;;;;;5068117;28;20032;-75
2023/12/05 01:26:56;;;;;;;1999.90;999.90;;;-0.90;99.90;;;;;;5074249;28;20504;-74
2023/12/05 01:29:22;;;;;;;1999.90;999.90;;;-0.80;99.90;;;;;;5072515;28;20390;-74
2023/12/05 01:31:48;;;;;;;1999.90;999.90;;;-0.90;99.90;;;;;;5069148;28;20835;-75
2023/12/05 01:34:13;;;;;;;1999.90;999.90;;;-0.90;99.90;;;;;;5070835;28;20020;-75
2023/12/05 01:36:39;;;;;;;1999.90;999.90;;;-0.90;99.90;;;;;;5070452;28;20035;-74
2023/12/05 01:39:05;;;;;;;1999.90;999.90;;;-0.90;99.90;;;;;;5072220;28;20460;-75
2023/12/05 01:41:30;;;;;;;1999.90;999.90;;;-0.90;99.90;;;;;;5050156;28;20084;-74
2023/12/05 01:43:56;;;;;;;1999.90;999.90;;;-0.90;99.90;;;;;;5071966;28;20341;-75
2023/12/05 01:46:22;;;;;;;1999.90;999.90;;;-0.90;99.90;;;;;;5066729;28;20036;-74
2023/12/05 01:48:49;;;;;;;1999.90;999.90;;;-1.00;99.90;;;;;;5071549;28;20020;-74
2023/12/05 01:51:16;;;;;;;1999.90;999.90;;;-0.90;99.90;;;;;;5066371;28;20040;-74
2023/12/05 01:53:42;;;;;;;1999.90;999.90;;;-0.80;99.90;;;;;;5071795;28;20027;-74
2023/12/05 01:56:10;;;;;;;1999.90;999.90;;;-0.80;99.90;;;;;;5054562;28;20086;-75
2023/12/05 01:58:37;;;;;;;1999.90;999.90;;;-0.80;99.90;;;;;;5071502;28;20036;-73
2023/12/05 02:01:04;;;;;;;1999.90;999.90;;;-0.80;99.90;;;;;;5070917;28;20044;-75
2023/12/05 02:03:31;;;;;;;1999.90;999.90;;;-0.70;99.90;;;;;;5071396;28;20036;-75
2023/12/05 02:05:58;;;;;;;1999.90;999.90;;;-0.70;99.90;;;;;;5069554;28;20033;-75
2023/12/05 02:08:26;;;;;;;1999.90;999.90;;;-0.80;99.90;;;;;;5073454;28;20063;-75
2023/12/05 02:10:52;;;;;;;1999.90;999.90;;;-0.70;99.90;;;;;;5071424;28;20024;-75
2023/12/05 02:13:18;;;;;;;1999.90;999.90;;;-0.70;99.90;;;;;;5070221;28;20036;-75
2023/12/05 02:15:46;;;;;;;1999.90;999.90;;;-0.60;99.90;;;;;;5069381;28;20040;-75
2023/12/05 02:18:20;;;;;;;1999.90;999.90;;;-0.60;99.90;;;;;;5068567;28;20703;-75
2023/12/05 02:21:00;;;;;;;1999.90;999.90;;;-0.60;99.90;;;;;;5065540;28;20033;-75
2023/12/05 02:23:54;;;;;;;1999.90;999.90;;;-0.60;99.90;;;;;;5063498;28;20389;-75
2023/12/05 02:26:41;;;;;;;1999.90;999.90;;;-0.70;99.90;;;;;;5066522;28;20025;-75
2023/12/05 02:29:07;;;;;;;1999.90;999.90;;;-0.80;99.90;;;;;;5061729;28;20036;-74
2023/12/05 02:31:33;;;;;;;1999.90;999.90;;;-0.80;99.90;;;;;;5063881;28;20033;-76
2023/12/05 02:33:59;;;;;;;1999.90;999.90;;;-0.80;99.90;;;;;;5050269;28;20432;-76
2023/12/05 02:36:49;;;;;;;1999.90;999.90;;;-0.80;99.90;;;;;;5067691;28;20041;-75
2023/12/05 02:39:21;;;;;;;1999.90;999.90;;;-0.80;99.90;;;;;;5070366;28;20089;-77
2023/12/05 02:41:53;;;;;;;1999.90;999.90;;;-0.70;99.90;;;;;;5064787;28;20024;-76
2023/12/05 02:44:20;;;;;;;1999.90;999.90;;;-0.70;99.90;;;;;;5068411;28;20028;-76
2023/12/05 02:46:48;;;;;;;1999.90;999.90;;;-0.70;99.90;;;;;;5067789;28;20032;-76
2023/12/05 02:49:14;;;;;;;1999.90;999.90;;;-0.70;99.90;;;;;;5067257;28;20539;-74
2023/12/05 02:51:40;;;;;;;1999.90;999.90;;;-0.80;99.90;;;;;;5051633;28;20085;-75
2023/12/05 02:54:06;;;;;;;1999.90;999.90;;;-0.80;99.90;;;;;;5067616;28;20031;-76
2023/12/05 02:56:36;;;;;;;1999.90;999.90;;;-0.80;99.90;;;;;;5071254;28;20671;-75
2023/12/05 02:59:02;;;;;;;1999.90;999.90;;;-0.80;99.90;;;;;;5062151;28;20060;-76
2023/12/05 03:01:28;;;;;;;1999.90;999.90;;;-0.90;99.90;;;;;;5101399;27;20033;-75
2023/12/05 03:03:53;;;;;;;1999.90;999.90;;;-1.00;99.90;;;;;;5064323;28;20035;-75
2023/12/05 03:06:19;;;;;;;1999.90;999.90;;;-0.90;99.90;;;;;;5067232;28;20498;-75
2023/12/05 03:08:48;;;;;;;1999.90;999.90;;;-1.00;99.90;;;;;;5064483;28;20032;-75
2023/12/05 03:11:13;;;;;;;1999.90;999.90;;;-1.00;99.90;;;;;;5067107;28;20031;-76
2023/12/05 03:13:40;;;;;;;1999.90;999.90;;;-0.90;99.90;;;;;;5072103;28;20538;-75
2023/12/05 03:16:07;;;;;;;1999.90;999.90;;;-0.90;99.90;;;;;;5067560;28;20025;-75
2023/12/05 03:18:32;;;;;;;1999.90;999.90;;;-0.90;99.90;;;;;;5074363;28;20043;-76
2023/12/05 03:20:58;;;;;;;1999.90;999.90;;;-0.90;99.90;;;;;;5073991;28;20036;-76
2023/12/05 03:23:24;;;;;;;1999.90;999.90;;;-0.90;99.90;;;;;;5073302;28;20108;-76
2023/12/05 03:25:49;;;;;;;1999.90;999.90;;;-0.90;99.90;;;;;;5070835;28;20067;-76
2023/12/05 03:28:15;;;;;;;1999.90;999.90;;;-1.00;99.90;;;;;;5074717;28;20028;-76
2023/12/05 03:30:43;;;;;;;1999.90;999.90;;;-1.00;99.90;;;;;;5073379;28;20039;-76
2023/12/05 03:33:09;;;;;;;1999.90;999.90;;;-1.00;99.90;;;;;;5074638;28;20111;-76
2023/12/05 03:35:35;;;;;;;1999.90;999.90;;;-1.00;99.90;;;;;;5074616;28;20135;-76
2023/12/05 03:38:00;;;;;;;1999.90;999.90;;;-1.10;99.90;;;;;;5051198;28;20145;-76
2023/12/05 03:40:26;;;;;;;1999.90;999.90;;;-1.10;99.90;;;;;;5073718;28;20036;-76
2023/12/05 03:42:51;;;;;;;1999.90;999.90;;;-1.20;99.90;;;;;;5073079;28;20040;-76
2023/12/05 03:45:17;;;;;;;1999.90;999.90;;;-1.00;99.90;;;;;;5070767;28;20032;-76
2023/12/05 03:47:43;;;;;;;1999.90;999.90;;;-0.90;99.90;;;;;;5069142;28;20017;-76
2023/12/05 03:50:08;;;;;;;1999.90;999.90;;;-0.80;99.90;;;;;;5072476;28;20066;-76
2023/12/05 03:52:34;;;;;;;1999.90;999.90;;;-0.70;99.90;;;;;;5073628;28;20044;-76
2023/12/05 03:55:00;;;;;;;1999.90;999.90;;;-0.60;99.90;;;;;;5075862;28;20458;-75
2023/12/05 03:57:25;;;;;;;1999.90;999.90;;;-0.60;99.90;;;;;;5052300;28;20037;-76
2023/12/05 03:59:51;;;;;;;1999.90;999.90;;;-0.50;99.90;;;;;;5073035;28;20028;-75
2023/12/05 04:02:18;;;;;;;1999.90;999.90;;;-0.40;99.90;;;;;;5073860;28;20044;-76
2023/12/05 04:04:43;;;;;;;1999.90;999.90;;;-0.40;99.90;;;;;;5074533;28;20374;-76
2023/12/05 04:07:09;;;;;;;1999.90;999.90;;;-0.40;99.90;;;;;;5068188;28;20113;-76
2023/12/05 04:09:34;;;;;;;1999.90;999.90;;;-0.40;99.90;;;;;;5073040;28;20052;-76
2023/12/05 04:12:00;;;;;;;1999.90;999.90;;;-0.50;99.90;;;;;;5069466;28;20103;-76
2023/12/05 04:14:26;;;;;;;1999.90;999.90;;;-0.50;99.90;;;;;;5071283;28;20406;-76
2023/12/05 04:16:51;;;;;;;1999.90;999.90;;;-0.50;99.90;;;;;;5074250;28;20040;-76
2023/12/05 04:19:17;;;;;;;1999.90;999.90;;;-0.40;99.90;;;;;;5071735;28;20820;-76
2023/12/05 04:21:45;;;;;;;1999.90;999.90;;;-0.40;99.90;;;;;;5072178;28;20603;-75
2023/12/05 04:24:11;;;;;;;1999.90;999.90;;;-0.40;99.90;;;;;;5050467;28;20033;-76
2023/12/05 04:26:39;;;;;;;1999.90;999.90;;;-0.30;99.90;;;;;;5066377;28;20039;-76
2023/12/05 04:29:05;;;;;;;1999.90;999.90;;;-0.30;99.90;;;;;;5070962;28;20078;-76
2023/12/05 04:31:30;;;;;;;1999.90;999.90;;;-0.30;99.90;;;;;;5067743;28;20029;-76
2023/12/05 04:33:56;;;;;;;1999.90;999.90;;;-0.30;99.90;;;;;;5068941;28;20395;-75
2023/12/05 04:36:24;;;;;;;1999.90;999.90;;;-0.40;99.90;;;;;;5067868;28;20064;-76
2023/12/05 04:38:49;;;;;;;1999.90;999.90;;;-0.40;99.90;;;;;;5066844;28;20406;-77
2023/12/05 04:41:15;;;;;;;1999.90;999.90;;;-0.50;99.90;;;;;;5067555;28;20028;-75
2023/12/05 04:43:41;;;;;;;1999.90;999.90;;;-0.50;99.90;;;;;;5065975;28;20522;-76
2023/12/05 04:46:09;;;;;;;1999.90;999.90;;;-0.50;99.90;;;;;;5065963;28;20148;-76
2023/12/05 04:48:34;;;;;;;1999.90;999.90;;;-0.50;99.90;;;;;;5064988;28;20025;-76
2023/12/05 04:51:00;;;;;;;1999.90;999.90;;;-0.50;99.90;;;;;;5068084;28;20041;-76
2023/12/05 04:53:26;;;;;;;1999.90;999.90;;;-0.40;99.90;;;;;;5065689;28;20040;-76
2023/12/05 04:55:51;;;;;;;1999.90;999.90;;;-0.40;99.90;;;;;;5069103;28;20032;-75
2023/12/05 04:58:17;;;;;;;1999.90;999.90;;;-0.30;99.90;;;;;;5066885;28;20120;-76
2023/12/05 05:00:42;;;;;;;1999.90;999.90;;;-0.30;99.90;;;;;;5067030;28;20380;-76
2023/12/05 05:03:08;;;;;;;1999.90;999.90;;;-0.30;99.90;;;;;;5064715;28;20033;-76
2023/12/05 05:05:34;;;;;;;1999.90;999.90;;;-0.20;99.90;;;;;;5070380;28;20046;-76
2023/12/05 05:07:59;;;;;;;1999.90;999.90;;;-0.20;99.90;;;;;;5051886;28;20432;-77
2023/12/05 05:10:25;;;;;;;1999.90;999.90;;;-0.10;99.90;;;;;;5065598;28;20025;-76
2023/12/05 05:12:51;;;;;;;1999.90;999.90;;;-0.10;99.90;;;;;;5065536;28;20025;-76
2023/12/05 05:15:16;;;;;;;1999.90;999.90;;;-0.10;99.90;;;;;;5063817;28;20055;-76
2023/12/05 05:17:42;;;;;;;1999.90;999.90;;;-0.10;99.90;;;;;;5068728;28;20060;-73
2023/12/05 05:20:08;;;;;;;1999.90;999.90;;;-0.20;99.90;;;;;;5066855;28;20078;-73
2023/12/05 05:22:34;;;;;;;1999.90;999.90;;;-0.20;99.90;;;;;;5066591;28;20033;-73
2023/12/05 05:24:59;;;;;;;1999.90;999.90;;;-0.20;99.90;;;;;;5067550;28;20071;-73
2023/12/05 05:27:25;;;;;;;1999.90;999.90;;;-0.30;99.90;;;;;;5065794;28;20055;-74
2023/12/05 05:29:51;;;;;;;1999.90;999.90;;;-0.20;99.90;;;;;;5068108;28;20082;-74
2023/12/05 05:32:16;;;;;;;1999.90;999.90;;;-0.10;99.90;;;;;;5070546;28;20070;-73
2023/12/05 05:34:42;;;;;;;1999.90;999.90;;;-0.20;99.90;;;;;;5069828;28;20037;-77
2023/12/05 05:37:07;;;;;;;1999.90;999.90;;;-0.30;99.90;;;;;;5069062;28;20033;-76
2023/12/05 05:39:33;;;;;;;1999.90;999.90;;;-0.40;99.90;;;;;;5069144;28;20040;-78
2023/12/05 05:41:59;;;;;;;1999.90;999.90;;;-0.50;99.90;;;;;;5071795;28;20044;-78
2023/12/05 05:44:24;;;;;;;1999.90;999.90;;;-0.50;99.90;;;;;;5070991;28;20521;-79
2023/12/05 05:46:50;;;;;;;1999.90;999.90;;;-0.60;99.90;;;;;;5048765;28;20155;-78
2023/12/05 05:49:16;;;;;;;1999.90;999.90;;;-0.60;99.90;;;;;;5069812;28;20052;-78
2023/12/05 05:51:41;;;;;;;1999.90;999.90;;;-0.50;99.90;;;;;;5070183;28;20059;-78
2023/12/05 05:54:07;;;;;;;1999.90;999.90;;;-0.50;99.90;;;;;;5071796;28;20107;-77
2023/12/05 05:56:39;;;;;;;1999.90;999.90;;;-0.50;99.90;;;;;;5067798;28;20501;-78
2023/12/05 05:59:05;;;;;;;1999.90;999.90;;;-0.40;99.90;;;;;;5067418;28;20102;-79
2023/12/05 06:01:30;;;;;;;1999.90;999.90;;;-0.30;99.90;;;;;;5071289;28;20024;-80
2023/12/05 06:03:56;;;;;;;1999.90;999.90;;;-0.30;99.90;;;;;;5067593;28;20037;-79
2023/12/05 06:06:22;;;;;;;1999.90;999.90;;;-0.20;99.90;;;;;;5066767;28;20091;-78
2023/12/05 06:08:47;;;;;;;1999.90;999.90;;;-0.20;99.90;;;;;;5066433;28;20032;-80
2023/12/05 06:11:13;;;;;;;1999.90;999.90;;;-0.10;99.90;;;;;;5065520;28;20029;-78
2023/12/05 06:13:39;;;;;;;1999.90;999.90;;;-0.10;99.90;;;;;;5071032;28;20020;-78
2023/12/05 06:16:05;;;;;;;1999.90;999.90;;;0.00;99.90;;;;;;5064906;28;20036;-81
2023/12/05 06:18:30;;;;;;;1999.90;999.90;;;0.00;99.90;;;;;;5064887;28;20067;-82
2023/12/05 06:20:57;;;;;;;1999.90;999.90;;;0.10;99.90;;;;;;5046134;28;20560;-79
2023/12/05 06:23:23;;;;;;;1999.90;999.90;;;0.10;99.90;;;;;;5070698;28;20037;-80
2023/12/05 06:25:49;;;;;;;1999.90;999.90;;;0.20;99.90;;;;;;5062338;28;20075;-79
2023/12/05 06:28:14;;;;;;;1999.90;999.90;;;0.20;99.90;;;;;;5062731;28;20074;-80
2023/12/05 06:30:40;;;;;;;1999.90;999.90;;;0.20;99.90;;;;;;5060581;28;20093;-77
2023/12/05 06:33:06;;;;;;;1999.90;999.90;;;0.20;99.90;;;;;;5065386;28;20372;-76
2023/12/05 06:35:31;;;;;;;1999.90;999.90;;;0.20;99.90;;;;;;5066775;28;20437;-77
2023/12/05 06:37:57;;;;;;;1999.90;999.90;;;0.30;99.90;;;;;;5066541;28;20468;-76
2023/12/05 06:40:22;;;;;;;1999.90;999.90;;;0.10;99.90;;;;;;5067518;28;20377;-77
2023/12/05 06:42:48;;;;;;;1999.90;999.90;;;0.00;99.90;;;;;;5101869;27;20824;-77
2023/12/05 06:45:15;;;;;;;1999.90;999.90;;;-0.10;99.90;;;;;;5071974;28;20106;-75
2023/12/05 06:47:40;;;;;;;1999.90;999.90;;;-0.20;99.90;;;;;;5067102;28;20056;-76
2023/12/05 06:50:10;;;;;;;1999.90;999.90;;;-0.20;99.90;;;;;;5069875;28;20063;-76
2023/12/05 06:52:37;;;;;;;1999.90;999.90;;;-0.20;99.90;;;;;;5065862;28;20073;-78
2023/12/05 06:55:04;;;;;;;1999.90;999.90;;;-0.20;99.90;;;;;;5069912;28;20086;-80
2023/12/05 06:57:30;;;;;;;1999.90;999.90;;;-0.20;99.90;;;;;;5051282;28;20031;-79
2023/12/05 06:59:56;;;;;;;1999.90;999.90;;;-0.30;99.90;;;;;;5068516;28;20033;-78
2023/12/05 07:02:21;;;;;;;1999.90;999.90;;;-0.20;99.90;;;;;;5069828;28;20036;-77
2023/12/05 07:04:47;;;;;;;1999.90;999.90;;;-0.10;99.90;;;;;;5095829;27;21050;-77
2023/12/05 07:07:12;;;;;;;1999.90;999.90;;;-0.10;99.90;;;;;;5051281;28;21067;-73
2023/12/05 07:09:38;;;;;;;1999.90;999.90;;;0.10;99.90;;;;;;5066997;28;20111;-74
2023/12/05 07:12:04;;;;;;;1999.90;999.90;;;0.20;99.90;;;;;;5066467;28;20128;-76
2023/12/05 07:14:33;;;;;;;1999.90;999.90;;;0.20;99.90;;;;;;5069445;28;20056;-77
2023/12/05 07:16:58;;;;;;;1999.90;999.90;;;0.20;99.90;;;;;;5068688;28;20025;-77
2023/12/05 07:19:24;;;;;;;1999.90;999.90;;;0.20;99.90;;;;;;5064006;28;20067;-77
2023/12/05 07:21:50;;;;;;;1999.90;999.90;;;0.20;99.90;;;;;;5097032;28;20394;-75
2023/12/05 07:24:15;;;;;;;1999.90;999.90;;;0.10;99.90;;;;;;5070855;28;20036;-77
2023/12/05 07:26:41;;;;;;;1999.90;999.90;;;0.10;99.90;;;;;;5068976;28;20040;-77
2023/12/05 07:29:07;;;;;;;1999.90;999.90;;;0.10;99.90;;;;;;5068183;28;20025;-77
2023/12/05 07:31:33;;;;;;;1999.90;999.90;;;0.20;99.90;;;;;;5064645;28;20474;-83
2023/12/05 07:33:58;;;;;;;1999.90;999.90;;;0.20;99.90;;;;;;5067263;28;20028;-77
2023/12/05 07:36:24;;;;;;;1999.90;999.90;;;0.30;99.90;;;;;;5064528;28;20494;-77
2023/12/05 07:38:50;;;;;;;1999.90;999.90;;;0.30;99.90;;;;;;5065887;28;20036;-76
2023/12/05 07:41:25;;;;;;;1999.90;999.90;;;0.30;99.90;;;;;;5068787;28;20047;-76
2023/12/05 07:43:51;;;;;;;1999.90;999.90;;;0.30;99.90;;;;;;5068694;28;20123;-76
2023/12/05 07:46:18;;;;;;;1999.90;999.90;;;0.20;99.90;;;;;;5071824;28;20059;-75
2023/12/05 07:48:44;;;;;;;1999.90;999.90;;;0.10;99.90;;;;;;5068699;28;20016;-76
2023/12/05 07:51:17;;;;;;;1999.90;999.90;;;0.20;99.90;;;;;;5066511;28;20045;-76
2023/12/05 07:53:49;;;;;;;1999.90;999.90;;;0.20;99.90;;;;;;5068998;28;20067;-76
2023/12/05 07:56:15;;;;;;;1999.90;999.90;;;0.20;99.90;;;;;;5065158;28;20032;-74
2023/12/05 07:58:41;;;;;;;1999.90;999.90;;;0.20;99.90;;;;;;5069613;28;20029;-76
2023/12/05 08:01:07;;;;;;;1999.90;999.90;;;0.30;99.90;;;;;;5071535;28;20029;-75
2023/12/05 08:03:34;;;;;;;1999.90;999.90;;;0.30;99.90;;;;;;5069654;28;20040;-74
2023/12/05 08:06:01;;;;;;;1999.90;999.90;;;0.20;99.90;;;;;;5098310;27;20056;-73
2023/12/05 08:08:30;;;;;;;1999.90;999.90;;;0.30;99.90;;;;;;5070531;28;20132;-74
2023/12/05 08:10:58;;;;;;;1999.90;999.90;;;0.30;99.90;;;;;;5069872;28;20043;-73
2023/12/05 08:13:24;;;;;;;1999.90;999.90;;;0.20;99.90;;;;;;5066083;28;20486;-75
2023/12/05 08:15:50;;;;;;;1999.90;999.90;;;0.40;99.90;;;;;;5069795;28;20040;-74
2023/12/05 08:18:16;;;;;;;1999.90;999.90;;;0.40;99.90;;;;;;5070116;28;20036;-75
2023/12/05 08:20:42;;;;;;;1999.90;999.90;;;0.50;99.90;;;;;;5070521;28;20033;-76
2023/12/05 08:23:08;;;;;;;1999.90;999.90;;;0.50;99.90;;;;;;5069616;28;20036;-74
2023/12/05 08:25:34;;;;;;;1999.90;999.90;;;0.50;99.90;;;;;;5071085;28;20101;-75
2023/12/05 08:28:00;;;;;;;1999.90;999.90;;;0.60;99.90;;;;;;5066169;28;20024;-75
2023/12/05 08:30:26;;;;;;;1999.90;999.90;;;0.70;99.90;;;;;;5068237;28;20037;-74
2023/12/05 08:32:51;;;;;;;1999.90;999.90;;;0.70;99.90;;;;;;5066212;28;20073;-75
2023/12/05 08:35:17;;;;;;;1999.90;999.90;;;0.80;99.90;;;;;;5069005;28;20093;-75
2023/12/05 08:37:43;;;;;;;1999.90;999.90;;;0.80;99.90;;;;;;5068405;28;20402;-75
2023/12/05 08:40:09;;;;;;;1999.90;999.90;;;1.00;99.90;;;;;;5068962;28;20021;-74
2023/12/05 08:42:35;;;;;;;1999.90;999.90;;;1.00;99.90;;;;;;5068684;28;20111;-75
2023/12/05 08:45:00;;;;;;;1999.90;999.90;;;1.00;99.90;;;;;;5069094;28;20565;-74
2023/12/05 08:47:26;;;;;;;1999.90;999.90;;;0.90;99.90;;;;;;5069106;28;20458;-74
2023/12/05 08:49:52;;;;;;;1999.90;999.90;;;1.10;99.90;;;;;;5069524;28;20545;-75
2023/12/05 08:52:20;;;;;;;1999.90;999.90;;;1.20;99.90;;;;;;5066486;28;20049;-75
2023/12/05 08:54:45;;;;;;;1999.90;999.90;;;1.50;99.90;;;;;;5069975;28;20052;-74
2023/12/05 08:57:12;;;;;;;1999.90;999.90;;;1.30;99.90;;;;;;5069418;28;20529;-74
2023/12/05 08:59:38;;;;;;;1999.90;999.90;;;1.70;99.90;;;;;;5068039;28;20039;-75
2023/12/05 09:02:04;;;;;;;1999.90;999.90;;;1.50;99.90;;;;;;5069666;28;20810;-75
2023/12/05 09:04:29;;;;;;;1999.90;999.90;;;1.90;99.90;;;;;;5069442;28;20512;-74
2023/12/05 09:06:55;;;;;;;1999.90;999.90;;;1.60;99.90;;;;;;5069581;28;20093;-75
2023/12/05 09:09:21;;;;;;;1999.90;999.90;;;2.00;99.90;;;;;;5068862;28;20082;-75
2023/12/05 09:11:46;;;;;;;1999.90;999.90;;;1.80;99.90;;;;;;5099109;27;20189;-74
2023/12/05 09:14:12;;;;;;;1999.90;999.90;;;2.00;99.90;;;;;;5067305;28;20036;-74
2023/12/05 09:16:38;;;;;;;1999.90;999.90;;;3.10;99.90;;;;;;5066287;28;20036;-74
2023/12/05 09:19:04;;;;;;;1999.90;999.90;;;2.60;99.90;;;;;;5069134;28;20029;-73
2023/12/05 09:21:29;;;;;;;1999.90;999.90;;;2.90;99.90;;;;;;5068395;28;20105;-73
2023/12/05 09:23:56;;;;;;;1999.90;999.90;;;3.20;99.90;;;;;;5070051;28;20356;-73
2023/12/05 09:26:22;;;;;;;1999.90;999.90;;;3.30;99.90;;;;;;5067413;28;20433;-73
2023/12/05 09:28:47;;;;;;;1999.90;999.90;;;3.40;99.90;;;;;;5068963;28;20025;-74
2023/12/05 09:31:13;;;;;;;1999.90;999.90;;;3.40;99.90;;;;;;5069217;28;20097;-73
2023/12/05 09:33:39;;;;;;;1999.90;999.90;;;2.40;99.90;;;;;;5065592;28;20025;-74
2023/12/05 09:36:04;;;;;;;1999.90;999.90;;;3.30;99.90;;;;;;5096032;27;20036;-74
2023/12/05 09:38:30;;;;;;;1999.90;999.90;;;3.00;99.90;;;;;;5065687;28;20537;-74
2023/12/05 09:40:57;;;;;;;1999.90;999.90;;;3.90;99.90;;;;;;5070369;28;20688;-73
2023/12/05 09:43:26;;;;;;;1999.90;999.90;;;4.10;99.90;;;;;;5067218;28;20037;-73
2023/12/05 09:46:00;;;;;;;1999.90;999.90;;;4.40;99.90;;;;;;5065990;28;20062;-73
2023/12/05 09:48:36;;;;;;;1999.90;999.90;;;4.50;99.90;;;;;;5066297;28;20466;-75
2023/12/05 09:51:01;;;;;;;1999.90;999.90;;;4.40;99.90;;;;;;5050073;28;20109;-73
2023/12/05 09:53:28;;;;;;;1999.90;999.90;;;4.60;99.90;;;;;;5065604;28;20445;-74
2023/12/05 09:55:54;;;;;;;1999.90;999.90;;;4.60;99.90;;;;;;5063719;28;20047;-74
2023/12/05 09:58:22;;;;;;;1999.90;999.90;;;4.70;99.90;;;;;;5071264;28;20097;-74
2023/12/05 10:00:49;;;;;;;1999.90;999.90;;;4.50;99.90;;;;;;5069080;28;20067;-74
2023/12/05 10:03:16;;;;;;;1999.90;999.90;;;4.30;99.90;;;;;;5071714;28;20102;-76
2023/12/05 10:05:45;;;;;;;1999.90;999.90;;;4.40;99.90;;;;;;5070513;28;20097;-76
2023/12/05 10:08:11;;;;;;;1999.90;999.90;;;4.40;99.90;;;;;;5071554;28;20044;-76
2023/12/05 10:10:45;;;;;;;1999.90;999.90;;;4.40;99.90;;;;;;5069318;28;20107;-72
2023/12/05 10:13:12;;;;;;;1999.90;999.90;;;4.50;99.90;;;;;;5070398;28;20113;-73
2023/12/05 10:15:39;;;;;;;1999.90;999.90;;;4.60;99.90;;;;;;5070465;28;20089;-74
2023/12/05 10:18:05;;;;;;;1999.90;999.90;;;4.90;99.90;;;;;;5071263;28;20043;-74
2023/12/05 10:20:31;;;;;;;1999.90;999.90;;;5.20;99.90;;;;;;5065223;28;20135;-74
2023/12/05 10:22:57;;;;;;;1999.90;999.90;;;5.30;99.90;;;;;;5068311;28;20765;-74
2023/12/05 10:25:23;;;;;;;1999.90;999.90;;;5.30;99.90;;;;;;5070579;28;20063;-74
2023/12/05 10:28:08;;;;;;;1999.90;999.90;;;5.30;99.90;;;;;;5069136;28;20040;-74
2023/12/05 10:30:37;;;;;;;1999.90;999.90;;;5.60;99.90;;;;;;5071457;28;20031;-74
2023/12/05 10:33:16;;;;;;;1999.90;999.90;;;5.70;99.90;;;;;;5067703;28;20048;-73
2023/12/05 10:35:45;;;;;;;1999.90;999.90;;;5.70;99.90;;;;;;5070467;28;20024;-74
2023/12/05 10:38:13;;;;;;;1999.90;999.90;;;5.60;99.90;;;;;;5069001;28;20040;-74
2023/12/05 10:41:01;;;;;;;1999.90;999.90;;;5.50;99.90;;;;;;5070168;28;20154;-73
2023/12/05 10:43:28;;;;;;;1999.90;999.90;;;5.40;99.90;;;;;;5071177;28;20485;-74
2023/12/05 10:45:55;;;;;;;1999.90;999.90;;;5.40;99.90;;;;;;5051708;28;20028;-73
2023/12/05 10:48:24;;;;;;;1999.90;999.90;;;5.20;99.90;;;;;;5066509;28;20036;-73
2023/12/05 10:50:53;;;;;;;1999.90;999.90;;;5.10;99.90;;;;;;5070402;28;20036;-73
2023/12/05 10:53:19;;;;;;;1999.90;999.90;;;5.10;99.90;;;;;;5070142;28;20080;-74
2023/12/05 10:55:45;;;;;;;1999.90;999.90;;;5.00;99.90;;;;;;5070874;28;20417;-74
2023/12/05 10:58:11;;;;;;;1999.90;999.90;;;5.20;99.90;;;;;;5067479;28;20028;-74
2023/12/05 11:00:38;;;;;;;1999.90;999.90;;;5.00;99.90;;;;;;5069380;28;20520;-73
2023/12/05 11:03:04;;;;;;;1999.90;999.90;;;5.10;99.90;;;;;;5066981;28;20035;-74
2023/12/05 11:05:31;;;;;;;1999.90;999.90;;;5.30;99.90;;;;;;5070920;28;20107;-75
2023/12/05 11:07:58;;;;;;;1999.90;999.90;;;5.30;99.90;;;;;;5069822;28;20024;-74
2023/12/05 11:10:26;;;;;;;1999.90;999.90;;;5.20;99.90;;;;;;5072183;28;20024;-76
2023/12/05 11:12:53;;;;;;;1999.90;999.90;;;5.40;99.90;;;;;;5070907;28;20028;-74
2023/12/05 11:15:24;;;;;;;1999.90;999.90;;;5.50;99.90;;;;;;5071903;28;20024;-73
2023/12/05 11:18:02;;;;;;;1999.90;999.90;;;5.70;99.90;;;;;;5066573;28;20032;-73
2023/12/05 11:20:40;;;;;;;1999.90;999.90;;;6.20;99.90;;;;;;5068693;28;20557;-72
2023/12/05 11:23:12;;;;;;;1999.90;999.90;;;6.40;99.90;;;;;;5069181;28;20348;-73
2023/12/05 11:25:47;;;;;;;1999.90;999.90;;;6.80;99.90;;;;;;5069331;28;20529;-73
2023/12/05 11:28:37;;;;;;;1999.90;999.90;;;6.80;99.90;;;;;;5066470;28;20492;-72
2023/12/05 11:31:12;;;;;;;1999.90;999.90;;;7.00;99.90;;;;;;5065823;28;20108;-80
2023/12/05 11:34:05;;;;;;;1999.90;999.90;;;7.20;99.90;;;;;;5071529;28;20029;-74
2023/12/05 11:36:36;;;;;;;1999.90;999.90;;;7.20;99.90;;;;;;5070768;28;20051;-74
2023/12/05 11:39:03;;;;;;;;;;;7.10;99.90;;;;;;5073366;28;20101;-75
2023/12/05 11:41:29;;;;;;;1999.90;999.90;;;7.00;99.90;;;;;;5070072;28;20019;-73
2023/12/05 11:44:17;;;;;;;1999.90;999.90;;;7.00;99.90;;;;;;5071311;28;20119;-74
2023/12/05 11:46:44;;;;;;;1999.90;999.90;;;6.80;99.90;;;;;;5069367;28;20029;-73
2023/12/05 11:49:10;;;;;;;1999.90;999.90;;;6.70;99.90;;;;;;5070956;28;20031;-73
2023/12/05 11:51:36;;;;;;;1999.90;999.90;;;6.60;99.90;;;;;;5068731;28;20111;-73
2023/12/05 11:54:05;;;;;;;1999.90;999.90;;;6.30;99.90;;;;;;5069703;28;20040;-75
2023/12/05 11:56:31;;;;;;;1999.90;999.90;;;6.30;99.90;;;;;;5070204;28;20032;-75
2023/12/05 11:59:15;;;;;;;1999.90;999.90;;;6.20;99.90;;;;;;5053741;28;20033;-74
2023/12/05 12:01:41;;;;;;;1999.90;999.90;;;6.10;99.90;;;;;;5071301;28;20091;-73
2023/12/05 12:04:22;;;;;;;1999.90;999.90;;;6.00;99.90;;;;;;5072284;28;20040;-74